sensor_id;sensor_type;location;lat;lon;timestamp;P1;durP1;ratioP1;P2;durP2;ratioP2
72369;SDS011;60343;-32.030;115.880;2023-06-14T00:01:34;7.53;;;1.08;;
72369;SDS011;60343;-32.030;115.880;2023-06-14T00:04:12;5.45;;;1.17;;
72369;SDS011;60343;-32.030;115.880;2023-06-14T00:06:57;3.80;;;1.50;;
72369;SDS011;60343;-32.030;115.880;2023-06-14T00:09:34;7.85;;;1.50;;
72369;SDS011;60343;-32.030;115.880;2023-06-14T00:12:10;7.13;;;1.60;;
72369;SDS011;60343;-32.030;115.880;2023-06-14T00:14:45;5.10;;;1.40;;
72369;SDS011;60343;-32.030;115.880;2023-06-14T00:17:21;4.93;;;1.60;;
72369;SDS011;60343;-32.030;115.880;2023-06-14T00:19:56;6.78;;;1.83;;
72369;SDS011;60343;-32.030;115.880;2023-06-14T00:22:39;6.10;;;1.60;;
72369;SDS011;60343;-32.030;115.880;2023-06-14T00:25:15;7.82;;;1.80;;
72369;SDS011;60343;-32.030;115.880;2023-06-14T00:27:50;6.80;;;1.67;;
72369;SDS011;60343;-32.030;115.880;2023-06-14T00:30:36;10.88;;;1.80;;
72369;SDS011;60343;-32.030;115.880;2023-06-14T00:33:14;7.93;;;1.95;;
72369;SDS011;60343;-32.030;115.880;2023-06-14T00:35:50;8.13;;;2.35;;
72369;SDS011;60343;-32.030;115.880;2023-06-14T00:38:32;6.13;;;1.70;;
72369;SDS011;60343;-32.030;115.880;2023-06-14T00:41:07;7.00;;;1.73;;
72369;SDS011;60343;-32.030;115.880;2023-06-14T00:43:42;6.47;;;1.80;;
72369;SDS011;60343;-32.030;115.880;2023-06-14T00:46:18;7.65;;;1.80;;
72369;SDS011;60343;-32.030;115.880;2023-06-14T00:48:53;6.65;;;2.10;;
72369;SDS011;60343;-32.030;115.880;2023-06-14T00:51:30;6.78;;;2.22;;
72369;SDS011;60343;-32.030;115.880;2023-06-14T00:54:11;5.65;;;1.98;;
72369;SDS011;60343;-32.030;115.880;2023-06-14T00:56:47;6.18;;;2.05;;
72369;SDS011;60343;-32.030;115.880;2023-06-14T00:59:22;6.28;;;1.90;;
72369;SDS011;60343;-32.030;115.880;2023-06-14T01:01:58;7.75;;;2.17;;
72369;SDS011;60343;-32.030;115.880;2023-06-14T01:04:33;6.38;;;2.03;;
72369;SDS011;60343;-32.030;115.880;2023-06-14T01:07:14;7.65;;;1.90;;
72369;SDS011;60343;-32.030;115.880;2023-06-14T01:10:08;5.65;;;1.45;;
72369;SDS011;60343;-32.030;115.880;2023-06-14T01:12:57;5.75;;;1.30;;
72369;SDS011;60343;-32.030;115.880;2023-06-14T01:15:38;5.88;;;1.25;;
72369;SDS011;60343;-32.030;115.880;2023-06-14T01:18:14;7.82;;;1.73;;
72369;SDS011;60343;-32.030;115.880;2023-06-14T01:20:52;5.00;;;1.35;;
72369;SDS011;60343;-32.030;115.880;2023-06-14T01:23:37;4.60;;;1.40;;
72369;SDS011;60343;-32.030;115.880;2023-06-14T01:26:19;6.68;;;1.50;;
72369;SDS011;60343;-32.030;115.880;2023-06-14T01:28:56;4.15;;;0.77;;
72369;SDS011;60343;-32.030;115.880;2023-06-14T01:31:32;6.25;;;1.10;;
72369;SDS011;60343;-32.030;115.880;2023-06-14T01:34:08;5.70;;;1.00;;
72369;SDS011;60343;-32.030;115.880;2023-06-14T01:36:44;7.88;;;1.10;;
72369;SDS011;60343;-32.030;115.880;2023-06-14T01:39:27;8.60;;;0.90;;
72369;SDS011;60343;-32.030;115.880;2023-06-14T01:42:04;4.75;;;0.80;;
72369;SDS011;60343;-32.030;115.880;2023-06-14T01:44:40;6.45;;;1.10;;
72369;SDS011;60343;-32.030;115.880;2023-06-14T01:47:17;3.75;;;0.70;;
72369;SDS011;60343;-32.030;115.880;2023-06-14T01:49:53;4.63;;;0.95;;
72369;SDS011;60343;-32.030;115.880;2023-06-14T01:52:29;7.07;;;0.90;;
72369;SDS011;60343;-32.030;115.880;2023-06-14T01:55:10;5.43;;;0.90;;
72369;SDS011;60343;-32.030;115.880;2023-06-14T01:57:48;4.72;;;0.70;;
72369;SDS011;60343;-32.030;115.880;2023-06-14T02:00:23;4.15;;;0.80;;
72369;SDS011;60343;-32.030;115.880;2023-06-14T02:02:58;3.88;;;0.90;;
72369;SDS011;60343;-32.030;115.880;2023-06-14T02:05:34;4.65;;;0.80;;
72369;SDS011;60343;-32.030;115.880;2023-06-14T02:08:09;6.43;;;0.98;;
72369;SDS011;60343;-32.030;115.880;2023-06-14T02:10:50;9.32;;;0.82;;
72369;SDS011;60343;-32.030;115.880;2023-06-14T02:13:26;2.92;;;0.60;;
72369;SDS011;60343;-32.030;115.880;2023-06-14T02:16:01;2.80;;;0.60;;
72369;SDS011;60343;-32.030;115.880;2023-06-14T02:18:37;5.10;;;1.00;;
72369;SDS011;60343;-32.030;115.880;2023-06-14T02:21:12;3.80;;;0.70;;
72369;SDS011;60343;-32.030;115.880;2023-06-14T02:23:48;3.38;;;0.50;;
72369;SDS011;60343;-32.030;115.880;2023-06-14T02:26:30;2.45;;;0.63;;
72369;SDS011;60343;-32.030;115.880;2023-06-14T02:29:05;5.35;;;0.70;;
72369;SDS011;60343;-32.030;115.880;2023-06-14T02:31:42;6.85;;;0.90;;
72369;SDS011;60343;-32.030;115.880;2023-06-14T02:34:17;5.68;;;0.63;;
72369;SDS011;60343;-32.030;115.880;2023-06-14T02:36:52;7.20;;;0.77;;
72369;SDS011;60343;-32.030;115.880;2023-06-14T02:39:29;2.53;;;0.50;;
72369;SDS011;60343;-32.030;115.880;2023-06-14T02:42:10;6.18;;;0.65;;
72369;SDS011;60343;-32.030;115.880;2023-06-14T02:44:46;5.85;;;0.70;;
72369;SDS011;60343;-32.030;115.880;2023-06-14T02:47:22;4.40;;;0.45;;
72369;SDS011;60343;-32.030;115.880;2023-06-14T02:49:56;2.65;;;0.40;;
72369;SDS011;60343;-32.030;115.880;2023-06-14T02:52:31;4.45;;;0.60;;
72369;SDS011;60343;-32.030;115.880;2023-06-14T02:55:08;5.68;;;0.60;;
72369;SDS011;60343;-32.030;115.880;2023-06-14T02:57:49;5.75;;;0.85;;
72369;SDS011;60343;-32.030;115.880;2023-06-14T03:00:25;5.22;;;0.80;;
72369;SDS011;60343;-32.030;115.880;2023-06-14T03:03:01;6.20;;;0.63;;
72369;SDS011;60343;-32.030;115.880;2023-06-14T03:05:40;7.95;;;0.50;;
72369;SDS011;60343;-32.030;115.880;2023-06-14T03:08:18;6.70;;;0.70;;
72369;SDS011;60343;-32.030;115.880;2023-06-14T03:10:55;3.40;;;0.57;;
72369;SDS011;60343;-32.030;115.880;2023-06-14T03:13:37;4.03;;;0.50;;
72369;SDS011;60343;-32.030;115.880;2023-06-14T03:16:13;4.55;;;0.90;;
72369;SDS011;60343;-32.030;115.880;2023-06-14T03:18:51;5.22;;;0.50;;
72369;SDS011;60343;-32.030;115.880;2023-06-14T03:21:26;4.32;;;0.43;;
72369;SDS011;60343;-32.030;115.880;2023-06-14T03:24:02;2.78;;;0.52;;
72369;SDS011;60343;-32.030;115.880;2023-06-14T03:26:37;3.03;;;0.38;;
72369;SDS011;60343;-32.030;115.880;2023-06-14T03:29:19;3.65;;;0.43;;
72369;SDS011;60343;-32.030;115.880;2023-06-14T03:31:57;3.47;;;0.32;;
72369;SDS011;60343;-32.030;115.880;2023-06-14T03:34:33;3.40;;;0.30;;
72369;SDS011;60343;-32.030;115.880;2023-06-14T03:37:09;5.00;;;0.32;;
72369;SDS011;60343;-32.030;115.880;2023-06-14T03:39:44;4.85;;;0.50;;
72369;SDS011;60343;-32.030;115.880;2023-06-14T03:42:20;3.88;;;0.30;;
72369;SDS011;60343;-32.030;115.880;2023-06-14T03:45:01;4.85;;;0.50;;
72369;SDS011;60343;-32.030;115.880;2023-06-14T03:47:37;5.82;;;0.30;;
72369;SDS011;60343;-32.030;115.880;2023-06-14T03:50:13;5.55;;;0.40;;
72369;SDS011;60343;-32.030;115.880;2023-06-14T03:52:48;5.85;;;0.38;;
72369;SDS011;60343;-32.030;115.880;2023-06-14T03:55:23;6.88;;;0.68;;
72369;SDS011;60343;-32.030;115.880;2023-06-14T03:57:59;3.97;;;0.30;;
72369;SDS011;60343;-32.030;115.880;2023-06-14T04:00:41;2.53;;;0.20;;
72369;SDS011;60343;-32.030;115.880;2023-06-14T04:03:16;4.13;;;0.30;;
72369;SDS011;60343;-32.030;115.880;2023-06-14T04:05:55;5.18;;;0.40;;
72369;SDS011;60343;-32.030;115.880;2023-06-14T04:08:31;3.33;;;0.30;;
72369;SDS011;60343;-32.030;115.880;2023-06-14T04:11:07;5.38;;;0.47;;
72369;SDS011;60343;-32.030;115.880;2023-06-14T04:13:42;2.95;;;0.30;;
72369;SDS011;60343;-32.030;115.880;2023-06-14T04:16:26;2.00;;;0.20;;
72369;SDS011;60343;-32.030;115.880;2023-06-14T04:19:01;3.92;;;0.25;;
72369;SDS011;60343;-32.030;115.880;2023-06-14T04:21:36;4.75;;;0.60;;
72369;SDS011;60343;-32.030;115.880;2023-06-14T04:24:12;5.97;;;0.30;;
72369;SDS011;60343;-32.030;115.880;2023-06-14T04:26:48;5.75;;;0.73;;
72369;SDS011;60343;-32.030;115.880;2023-06-14T04:29:25;2.72;;;0.20;;
72369;SDS011;60343;-32.030;115.880;2023-06-14T04:32:07;3.88;;;0.40;;
72369;SDS011;60343;-32.030;115.880;2023-06-14T04:34:45;3.03;;;0.30;;
72369;SDS011;60343;-32.030;115.880;2023-06-14T04:37:20;3.88;;;0.40;;
72369;SDS011;60343;-32.030;115.880;2023-06-14T04:39:56;4.13;;;0.38;;
72369;SDS011;60343;-32.030;115.880;2023-06-14T04:42:33;6.22;;;0.50;;
72369;SDS011;60343;-32.030;115.880;2023-06-14T04:45:11;2.10;;;0.20;;
72369;SDS011;60343;-32.030;115.880;2023-06-14T04:47:52;7.65;;;0.50;;
72369;SDS011;60343;-32.030;115.880;2023-06-14T04:50:28;4.28;;;0.40;;
72369;SDS011;60343;-32.030;115.880;2023-06-14T04:53:03;2.30;;;0.38;;
72369;SDS011;60343;-32.030;115.880;2023-06-14T04:55:39;3.22;;;0.30;;
72369;SDS011;60343;-32.030;115.880;2023-06-14T04:58:14;4.40;;;0.30;;
72369;SDS011;60343;-32.030;115.880;2023-06-14T05:00:49;3.03;;;0.35;;
72369;SDS011;60343;-32.030;115.880;2023-06-14T05:03:31;6.50;;;0.50;;
72369;SDS011;60343;-32.030;115.880;2023-06-14T05:06:07;3.00;;;0.50;;
72369;SDS011;60343;-32.030;115.880;2023-06-14T05:08:43;4.47;;;0.55;;
72369;SDS011;60343;-32.030;115.880;2023-06-14T05:11:18;4.47;;;0.43;;
72369;SDS011;60343;-32.030;115.880;2023-06-14T05:13:54;3.50;;;0.30;;
72369;SDS011;60343;-32.030;115.880;2023-06-14T05:16:30;3.88;;;0.50;;
72369;SDS011;60343;-32.030;115.880;2023-06-14T05:19:11;2.78;;;0.28;;
72369;SDS011;60343;-32.030;115.880;2023-06-14T05:21:47;3.22;;;0.30;;
72369;SDS011;60343;-32.030;115.880;2023-06-14T05:24:22;3.60;;;0.20;;
72369;SDS011;60343;-32.030;115.880;2023-06-14T05:26:58;6.13;;;0.43;;
72369;SDS011;60343;-32.030;115.880;2023-06-14T05:29:33;3.00;;;0.30;;
72369;SDS011;60343;-32.030;115.880;2023-06-14T05:32:09;3.75;;;0.17;;
72369;SDS011;60343;-32.030;115.880;2023-06-14T05:34:52;10.70;;;0.57;;
72369;SDS011;60343;-32.030;115.880;2023-06-14T05:37:27;2.05;;;0.20;;
72369;SDS011;60343;-32.030;115.880;2023-06-14T05:40:03;7.00;;;0.32;;
72369;SDS011;60343;-32.030;115.880;2023-06-14T05:42:40;4.13;;;0.55;;
72369;SDS011;60343;-32.030;115.880;2023-06-14T05:45:15;7.28;;;0.50;;
72369;SDS011;60343;-32.030;115.880;2023-06-14T05:47:50;5.20;;;0.40;;
72369;SDS011;60343;-32.030;115.880;2023-06-14T05:50:32;5.13;;;0.40;;
72369;SDS011;60343;-32.030;115.880;2023-06-14T05:53:08;7.03;;;0.50;;
72369;SDS011;60343;-32.030;115.880;2023-06-14T05:55:43;4.50;;;0.45;;
72369;SDS011;60343;-32.030;115.880;2023-06-14T05:58:20;4.30;;;0.30;;
72369;SDS011;60343;-32.030;115.880;2023-06-14T06:00:55;4.35;;;0.40;;
72369;SDS011;60343;-32.030;115.880;2023-06-14T06:03:31;2.60;;;0.20;;
72369;SDS011;60343;-32.030;115.880;2023-06-14T06:06:12;2.85;;;0.20;;
72369;SDS011;60343;-32.030;115.880;2023-06-14T06:08:47;6.07;;;0.65;;
72369;SDS011;60343;-32.030;115.880;2023-06-14T06:11:23;3.58;;;0.38;;
72369;SDS011;60343;-32.030;115.880;2023-06-14T06:13:58;6.80;;;0.38;;
72369;SDS011;60343;-32.030;115.880;2023-06-14T06:16:34;3.13;;;0.50;;
72369;SDS011;60343;-32.030;115.880;2023-06-14T06:19:09;4.07;;;0.28;;
72369;SDS011;60343;-32.030;115.880;2023-06-14T06:21:50;6.22;;;0.40;;
72369;SDS011;60343;-32.030;115.880;2023-06-14T06:24:26;2.72;;;0.30;;
72369;SDS011;60343;-32.030;115.880;2023-06-14T06:27:02;4.32;;;0.50;;
72369;SDS011;60343;-32.030;115.880;2023-06-14T06:29:39;7.10;;;0.40;;
72369;SDS011;60343;-32.030;115.880;2023-06-14T06:32:16;3.15;;;0.40;;
72369;SDS011;60343;-32.030;115.880;2023-06-14T06:34:51;3.30;;;0.50;;
72369;SDS011;60343;-32.030;115.880;2023-06-14T06:37:33;4.20;;;0.30;;
72369;SDS011;60343;-32.030;115.880;2023-06-14T06:40:09;6.40;;;0.50;;
72369;SDS011;60343;-32.030;115.880;2023-06-14T06:42:44;3.50;;;0.40;;
72369;SDS011;60343;-32.030;115.880;2023-06-14T06:45:21;5.32;;;0.40;;
72369;SDS011;60343;-32.030;115.880;2023-06-14T06:47:56;5.63;;;0.60;;
72369;SDS011;60343;-32.030;115.880;2023-06-14T06:50:32;4.75;;;0.20;;
72369;SDS011;60343;-32.030;115.880;2023-06-14T06:53:13;2.35;;;0.30;;
72369;SDS011;60343;-32.030;115.880;2023-06-14T06:55:49;2.95;;;0.30;;
72369;SDS011;60343;-32.030;115.880;2023-06-14T06:58:24;3.35;;;0.40;;
72369;SDS011;60343;-32.030;115.880;2023-06-14T07:00:59;4.13;;;0.50;;
72369;SDS011;60343;-32.030;115.880;2023-06-14T07:03:35;3.55;;;0.30;;
72369;SDS011;60343;-32.030;115.880;2023-06-14T07:06:10;3.03;;;0.43;;
72369;SDS011;60343;-32.030;115.880;2023-06-14T07:08:52;2.50;;;0.20;;
72369;SDS011;60343;-32.030;115.880;2023-06-14T07:11:28;3.72;;;0.17;;
72369;SDS011;60343;-32.030;115.880;2023-06-14T07:14:03;2.33;;;0.22;;
72369;SDS011;60343;-32.030;115.880;2023-06-14T07:16:39;2.47;;;0.30;;
72369;SDS011;60343;-32.030;115.880;2023-06-14T07:19:15;2.15;;;0.20;;
72369;SDS011;60343;-32.030;115.880;2023-06-14T07:21:50;3.63;;;0.30;;
72369;SDS011;60343;-32.030;115.880;2023-06-14T07:24:32;4.05;;;0.30;;
72369;SDS011;60343;-32.030;115.880;2023-06-14T07:27:08;1.83;;;0.30;;
72369;SDS011;60343;-32.030;115.880;2023-06-14T07:29:43;2.15;;;0.17;;
72369;SDS011;60343;-32.030;115.880;2023-06-14T07:32:19;4.78;;;0.47;;
72369;SDS011;60343;-32.030;115.880;2023-06-14T07:34:54;2.38;;;0.20;;
72369;SDS011;60343;-32.030;115.880;2023-06-14T07:37:29;2.20;;;0.20;;
72369;SDS011;60343;-32.030;115.880;2023-06-14T07:40:12;4.15;;;0.13;;
72369;SDS011;60343;-32.030;115.880;2023-06-14T07:42:47;1.48;;;0.10;;
72369;SDS011;60343;-32.030;115.880;2023-06-14T07:45:22;2.47;;;0.20;;
72369;SDS011;60343;-32.030;115.880;2023-06-14T07:47:58;2.88;;;0.10;;
72369;SDS011;60343;-32.030;115.880;2023-06-14T07:50:33;1.42;;;0.10;;
72369;SDS011;60343;-32.030;115.880;2023-06-14T07:53:09;3.50;;;0.32;;
72369;SDS011;60343;-32.030;115.880;2023-06-14T07:55:50;1.25;;;0.10;;
72369;SDS011;60343;-32.030;115.880;2023-06-14T07:58:26;1.00;;;0.20;;
72369;SDS011;60343;-32.030;115.880;2023-06-14T08:01:01;4.47;;;0.40;;
72369;SDS011;60343;-32.030;115.880;2023-06-14T08:03:38;4.53;;;0.30;;
72369;SDS011;60343;-32.030;115.880;2023-06-14T08:06:13;3.88;;;0.20;;
72369;SDS011;60343;-32.030;115.880;2023-06-14T08:08:48;2.50;;;0.30;;
72369;SDS011;60343;-32.030;115.880;2023-06-14T08:11:30;2.05;;;0.28;;
72369;SDS011;60343;-32.030;115.880;2023-06-14T08:14:05;2.90;;;0.28;;
72369;SDS011;60343;-32.030;115.880;2023-06-14T08:16:41;3.70;;;0.22;;
72369;SDS011;60343;-32.030;115.880;2023-06-14T08:19:16;5.32;;;0.30;;
72369;SDS011;60343;-32.030;115.880;2023-06-14T08:21:52;1.33;;;0.30;;
72369;SDS011;60343;-32.030;115.880;2023-06-14T08:24:27;3.35;;;0.40;;
72369;SDS011;60343;-32.030;115.880;2023-06-14T08:27:10;3.15;;;0.30;;
72369;SDS011;60343;-32.030;115.880;2023-06-14T08:29:46;1.42;;;0.20;;
72369;SDS011;60343;-32.030;115.880;2023-06-14T08:32:21;2.90;;;0.40;;
72369;SDS011;60343;-32.030;115.880;2023-06-14T08:34:57;2.45;;;0.20;;
72369;SDS011;60343;-32.030;115.880;2023-06-14T08:37:32;1.77;;;0.28;;
72369;SDS011;60343;-32.030;115.880;2023-06-14T08:40:17;3.70;;;0.32;;
72369;SDS011;60343;-32.030;115.880;2023-06-14T08:42:59;3.85;;;0.40;;
72369;SDS011;60343;-32.030;115.880;2023-06-14T08:45:34;3.15;;;0.30;;
72369;SDS011;60343;-32.030;115.880;2023-06-14T08:48:10;2.03;;;0.38;;
72369;SDS011;60343;-32.030;115.880;2023-06-14T08:50:46;3.72;;;0.28;;
72369;SDS011;60343;-32.030;115.880;2023-06-14T08:53:28;3.15;;;0.20;;
72369;SDS011;60343;-32.030;115.880;2023-06-14T08:56:08;3.60;;;0.20;;
72369;SDS011;60343;-32.030;115.880;2023-06-14T08:58:50;1.30;;;0.20;;
72369;SDS011;60343;-32.030;115.880;2023-06-14T09:04:04;3.38;;;0.20;;
72369;SDS011;60343;-32.030;115.880;2023-06-14T09:06:40;1.60;;;0.22;;
72369;SDS011;60343;-32.030;115.880;2023-06-14T09:09:19;4.13;;;0.20;;
72369;SDS011;60343;-32.030;115.880;2023-06-14T09:11:55;3.03;;;0.30;;
72369;SDS011;60343;-32.030;115.880;2023-06-14T09:14:37;2.28;;;0.10;;
72369;SDS011;60343;-32.030;115.880;2023-06-14T09:17:13;3.08;;;0.20;;
72369;SDS011;60343;-32.030;115.880;2023-06-14T09:19:49;6.53;;;0.47;;
72369;SDS011;60343;-32.030;115.880;2023-06-14T09:22:24;3.15;;;0.20;;
72369;SDS011;60343;-32.030;115.880;2023-06-14T09:25:00;3.08;;;0.30;;
72369;SDS011;60343;-32.030;115.880;2023-06-14T09:27:36;3.22;;;0.40;;
72369;SDS011;60343;-32.030;115.880;2023-06-14T09:30:19;3.60;;;0.20;;
72369;SDS011;60343;-32.030;115.880;2023-06-14T09:32:56;4.10;;;0.30;;
72369;SDS011;60343;-32.030;115.880;2023-06-14T09:35:33;2.45;;;0.38;;
72369;SDS011;60343;-32.030;115.880;2023-06-14T09:38:09;4.70;;;0.43;;
72369;SDS011;60343;-32.030;115.880;2023-06-14T09:40:45;2.70;;;0.50;;
72369;SDS011;60343;-32.030;115.880;2023-06-14T09:43:24;2.78;;;0.40;;
72369;SDS011;60343;-32.030;115.880;2023-06-14T09:46:07;2.22;;;0.20;;
72369;SDS011;60343;-32.030;115.880;2023-06-14T09:48:44;1.48;;;0.22;;
72369;SDS011;60343;-32.030;115.880;2023-06-14T09:51:20;3.10;;;0.52;;
72369;SDS011;60343;-32.030;115.880;2023-06-14T09:53:59;4.45;;;0.45;;
72369;SDS011;60343;-32.030;115.880;2023-06-14T09:56:37;3.15;;;0.25;;
72369;SDS011;60343;-32.030;115.880;2023-06-14T09:59:16;2.88;;;0.30;;
72369;SDS011;60343;-32.030;115.880;2023-06-14T10:02:05;3.65;;;0.57;;
72369;SDS011;60343;-32.030;115.880;2023-06-14T10:04:46;3.03;;;0.22;;
72369;SDS011;60343;-32.030;115.880;2023-06-14T10:07:27;1.25;;;0.20;;
72369;SDS011;60343;-32.030;115.880;2023-06-14T10:10:06;1.67;;;0.30;;
72369;SDS011;60343;-32.030;115.880;2023-06-14T10:12:43;1.73;;;0.30;;
72369;SDS011;60343;-32.030;115.880;2023-06-14T10:15:20;3.38;;;0.68;;
72369;SDS011;60343;-32.030;115.880;2023-06-14T10:18:11;2.60;;;0.40;;
72369;SDS011;60343;-32.030;115.880;2023-06-14T10:21:03;4.93;;;0.65;;
72369;SDS011;60343;-32.030;115.880;2023-06-14T10:23:47;3.13;;;0.22;;
72369;SDS011;60343;-32.030;115.880;2023-06-14T10:26:25;3.22;;;0.30;;
72369;SDS011;60343;-32.030;115.880;2023-06-14T10:29:07;3.10;;;0.50;;
72369;SDS011;60343;-32.030;115.880;2023-06-14T10:31:43;1.52;;;0.45;;
72369;SDS011;60343;-32.030;115.880;2023-06-14T10:34:29;3.97;;;0.65;;
72369;SDS011;60343;-32.030;115.880;2023-06-14T10:37:06;3.00;;;0.57;;
72369;SDS011;60343;-32.030;115.880;2023-06-14T10:39:45;3.50;;;0.50;;
72369;SDS011;60343;-32.030;115.880;2023-06-14T10:42:31;3.28;;;0.50;;
72369;SDS011;60343;-32.030;115.880;2023-06-14T11:06:54;3.50;;;0.60;;
72369;SDS011;60343;-32.030;115.880;2023-06-14T11:09:47;3.78;;;0.60;;
72369;SDS011;60343;-32.030;115.880;2023-06-14T11:12:51;4.43;;;0.60;;
72369;SDS011;60343;-32.030;115.880;2023-06-14T11:15:30;3.78;;;0.70;;
72369;SDS011;60343;-32.030;115.880;2023-06-14T11:18:07;2.25;;;0.63;;
72369;SDS011;60343;-32.030;115.880;2023-06-14T11:20:45;5.25;;;0.50;;
72369;SDS011;60343;-32.030;115.880;2023-06-14T11:23:22;3.13;;;0.57;;
72369;SDS011;60343;-32.030;115.880;2023-06-14T11:25:58;4.32;;;0.75;;
72369;SDS011;60343;-32.030;115.880;2023-06-14T11:28:44;4.93;;;0.90;;
72369;SDS011;60343;-32.030;115.880;2023-06-14T11:31:20;1.73;;;0.40;;
72369;SDS011;60343;-32.030;115.880;2023-06-14T11:33:57;5.13;;;0.75;;
72369;SDS011;60343;-32.030;115.880;2023-06-14T11:36:34;3.28;;;0.70;;
72369;SDS011;60343;-32.030;115.880;2023-06-14T11:39:10;2.10;;;0.50;;
72369;SDS011;60343;-32.030;115.880;2023-06-14T11:41:47;3.95;;;0.70;;
72369;SDS011;60343;-32.030;115.880;2023-06-14T11:44:30;2.17;;;0.50;;
72369;SDS011;60343;-32.030;115.880;2023-06-14T11:47:07;2.90;;;0.63;;
72369;SDS011;60343;-32.030;115.880;2023-06-14T11:49:44;3.05;;;0.70;;
72369;SDS011;60343;-32.030;115.880;2023-06-14T11:52:21;3.08;;;0.70;;
72369;SDS011;60343;-32.030;115.880;2023-06-14T11:54:57;4.03;;;0.70;;
72369;SDS011;60343;-32.030;115.880;2023-06-14T11:57:34;5.00;;;0.80;;
72369;SDS011;60343;-32.030;115.880;2023-06-14T12:00:17;2.38;;;0.60;;
72369;SDS011;60343;-32.030;115.880;2023-06-14T12:02:58;3.53;;;1.02;;
72369;SDS011;60343;-32.030;115.880;2023-06-14T12:05:35;3.53;;;0.70;;
72369;SDS011;60343;-32.030;115.880;2023-06-14T12:08:11;2.65;;;0.77;;
72369;SDS011;60343;-32.030;115.880;2023-06-14T12:10:51;3.92;;;0.80;;
72369;SDS011;60343;-32.030;115.880;2023-06-14T12:13:27;3.58;;;0.70;;
72369;SDS011;60343;-32.030;115.880;2023-06-14T12:16:10;2.72;;;0.70;;
72369;SDS011;60343;-32.030;115.880;2023-06-14T12:18:47;2.28;;;0.68;;
72369;SDS011;60343;-32.030;115.880;2023-06-14T12:21:24;3.95;;;1.08;;
72369;SDS011;60343;-32.030;115.880;2023-06-14T12:24:03;3.30;;;0.60;;
72369;SDS011;60343;-32.030;115.880;2023-06-14T12:26:40;3.28;;;1.00;;
72369;SDS011;60343;-32.030;115.880;2023-06-14T12:29:18;3.35;;;0.80;;
72369;SDS011;60343;-32.030;115.880;2023-06-14T12:32:01;4.20;;;1.08;;
72369;SDS011;60343;-32.030;115.880;2023-06-14T12:34:37;3.42;;;0.60;;
72369;SDS011;60343;-32.030;115.880;2023-06-14T12:37:14;2.50;;;0.80;;
72369;SDS011;60343;-32.030;115.880;2023-06-14T12:39:50;5.35;;;1.05;;
72369;SDS011;60343;-32.030;115.880;2023-06-14T12:42:26;6.28;;;1.02;;
72369;SDS011;60343;-32.030;115.880;2023-06-14T12:45:03;4.63;;;0.82;;
72369;SDS011;60343;-32.030;115.880;2023-06-14T12:47:46;4.82;;;0.82;;
72369;SDS011;60343;-32.030;115.880;2023-06-14T12:50:22;2.97;;;0.90;;
72369;SDS011;60343;-32.030;115.880;2023-06-14T12:52:58;4.75;;;1.00;;
72369;SDS011;60343;-32.030;115.880;2023-06-14T12:55:35;4.55;;;0.80;;
72369;SDS011;60343;-32.030;115.880;2023-06-14T12:58:11;4.13;;;1.00;;
72369;SDS011;60343;-32.030;115.880;2023-06-14T13:00:47;4.82;;;0.90;;
72369;SDS011;60343;-32.030;115.880;2023-06-14T13:03:30;3.30;;;0.80;;
72369;SDS011;60343;-32.030;115.880;2023-06-14T13:06:06;3.13;;;0.90;;
72369;SDS011;60343;-32.030;115.880;2023-06-14T13:08:43;2.45;;;0.80;;
72369;SDS011;60343;-32.030;115.880;2023-06-14T13:11:21;3.72;;;1.08;;
72369;SDS011;60343;-32.030;115.880;2023-06-14T13:13:57;5.82;;;1.65;;
72369;SDS011;60343;-32.030;115.880;2023-06-14T13:16:34;5.30;;;1.70;;
72369;SDS011;60343;-32.030;115.880;2023-06-14T13:19:16;4.22;;;1.30;;
72369;SDS011;60343;-32.030;115.880;2023-06-14T13:21:52;4.40;;;1.38;;
72369;SDS011;60343;-32.030;115.880;2023-06-14T13:24:29;4.93;;;1.40;;
72369;SDS011;60343;-32.030;115.880;2023-06-14T13:27:05;5.03;;;1.50;;
72369;SDS011;60343;-32.030;115.880;2023-06-14T13:29:42;5.70;;;1.80;;
72369;SDS011;60343;-32.030;115.880;2023-06-14T13:32:18;4.13;;;1.30;;
72369;SDS011;60343;-32.030;115.880;2023-06-14T13:35:02;3.50;;;1.40;;
72369;SDS011;60343;-32.030;115.880;2023-06-14T13:37:38;5.78;;;2.35;;
72369;SDS011;60343;-32.030;115.880;2023-06-14T13:40:15;9.38;;;3.20;;
72369;SDS011;60343;-32.030;115.880;2023-06-14T13:42:51;12.73;;;4.57;;
72369;SDS011;60343;-32.030;115.880;2023-06-14T13:45:28;11.35;;;5.35;;
72369;SDS011;60343;-32.030;115.880;2023-06-14T13:48:04;11.85;;;5.22;;
72369;SDS011;60343;-32.030;115.880;2023-06-14T13:50:47;12.15;;;5.32;;
72369;SDS011;60343;-32.030;115.880;2023-06-14T13:53:23;12.48;;;4.88;;
72369;SDS011;60343;-32.030;115.880;2023-06-14T13:55:59;11.48;;;5.53;;
72369;SDS011;60343;-32.030;115.880;2023-06-14T13:58:37;14.63;;;6.20;;
72369;SDS011;60343;-32.030;115.880;2023-06-14T14:01:13;13.18;;;5.90;;
72369;SDS011;60343;-32.030;115.880;2023-06-14T14:03:50;9.88;;;5.00;;
72369;SDS011;60343;-32.030;115.880;2023-06-14T14:06:33;10.85;;;4.85;;
72369;SDS011;60343;-32.030;115.880;2023-06-14T14:09:09;11.80;;;4.75;;
72369;SDS011;60343;-32.030;115.880;2023-06-14T14:11:45;8.27;;;3.90;;
72369;SDS011;60343;-32.030;115.880;2023-06-14T14:14:22;8.85;;;3.75;;
72369;SDS011;60343;-32.030;115.880;2023-06-14T14:16:58;8.85;;;3.42;;
72369;SDS011;60343;-32.030;115.880;2023-06-14T14:19:34;8.07;;;3.50;;
72369;SDS011;60343;-32.030;115.880;2023-06-14T14:22:17;6.68;;;3.20;;
72369;SDS011;60343;-32.030;115.880;2023-06-14T14:24:53;7.22;;;2.75;;
72369;SDS011;60343;-32.030;115.880;2023-06-14T14:27:29;8.13;;;2.50;;
72369;SDS011;60343;-32.030;115.880;2023-06-14T14:30:06;7.00;;;2.22;;
72369;SDS011;60343;-32.030;115.880;2023-06-14T14:32:43;6.88;;;1.80;;
72369;SDS011;60343;-32.030;115.880;2023-06-14T14:35:20;7.30;;;2.00;;
72369;SDS011;60343;-32.030;115.880;2023-06-14T14:38:03;8.27;;;1.58;;
72369;SDS011;60343;-32.030;115.880;2023-06-14T14:40:39;4.82;;;1.25;;
72369;SDS011;60343;-32.030;115.880;2023-06-14T14:43:16;6.22;;;1.13;;
72369;SDS011;60343;-32.030;115.880;2023-06-14T14:45:53;5.47;;;1.05;;
72369;SDS011;60343;-32.030;115.880;2023-06-14T14:48:29;5.75;;;1.02;;
72369;SDS011;60343;-32.030;115.880;2023-06-14T14:51:05;3.47;;;0.73;;
72369;SDS011;60343;-32.030;115.880;2023-06-14T14:53:48;3.50;;;0.98;;
72369;SDS011;60343;-32.030;115.880;2023-06-14T14:56:24;4.35;;;0.88;;
72369;SDS011;60343;-32.030;115.880;2023-06-14T14:59:01;4.90;;;0.77;;
72369;SDS011;60343;-32.030;115.880;2023-06-14T15:01:37;6.15;;;0.90;;
72369;SDS011;60343;-32.030;115.880;2023-06-14T15:04:14;4.65;;;0.73;;
72369;SDS011;60343;-32.030;115.880;2023-06-14T15:06:50;3.75;;;0.73;;
72369;SDS011;60343;-32.030;115.880;2023-06-14T15:09:33;4.53;;;0.70;;
72369;SDS011;60343;-32.030;115.880;2023-06-14T15:12:13;3.65;;;0.70;;
72369;SDS011;60343;-32.030;115.880;2023-06-14T15:14:50;4.75;;;0.88;;
72369;SDS011;60343;-32.030;115.880;2023-06-14T15:17:27;4.40;;;0.90;;
72369;SDS011;60343;-32.030;115.880;2023-06-14T15:20:03;4.78;;;0.68;;
72369;SDS011;60343;-32.030;115.880;2023-06-14T15:22:41;4.05;;;0.77;;
72369;SDS011;60343;-32.030;115.880;2023-06-14T15:25:23;4.70;;;1.73;;
72369;SDS011;60343;-32.030;115.880;2023-06-14T15:28:00;6.15;;;2.22;;
72369;SDS011;60343;-32.030;115.880;2023-06-14T15:30:36;6.57;;;2.45;;
72369;SDS011;60343;-32.030;115.880;2023-06-14T15:33:12;8.60;;;3.22;;